sensor_id;sensor_type;location;lat;lon;timestamp;P1;durP1;ratioP1;P2;durP2;ratioP2
48809;SDS011;40070;47.322;18.784;2023-04-03T00:01:40;6.17;;;2.58;;
48809;SDS011;40070;47.322;18.784;2023-04-03T00:03:41;5.31;;;2.08;;
48809;SDS011;40070;47.322;18.784;2023-04-03T00:05:42;5.42;;;2.18;;
48809;SDS011;40070;47.322;18.784;2023-04-03T00:07:42;5.23;;;2.78;;
48809;SDS011;40070;47.322;18.784;2023-04-03T00:09:43;5.13;;;2.38;;
48809;SDS011;40070;47.322;18.784;2023-04-03T00:11:45;6.38;;;2.68;;
48809;SDS011;40070;47.322;18.784;2023-04-03T00:13:46;5.05;;;2.08;;
48809;SDS011;40070;47.322;18.784;2023-04-03T00:15:47;5.34;;;2.28;;
48809;SDS011;40070;47.322;18.784;2023-04-03T00:17:48;4.76;;;2.28;;
48809;SDS011;40070;47.322;18.784;2023-04-03T00:19:49;4.78;;;2.09;;
48809;SDS011;40070;47.322;18.784;2023-04-03T00:21:50;5.07;;;2.48;;
48809;SDS011;40070;47.322;18.784;2023-04-03T00:23:51;4.51;;;2.09;;
48809;SDS011;40070;47.322;18.784;2023-04-03T00:25:53;5.97;;;2.09;;
48809;SDS011;40070;47.322;18.784;2023-04-03T00:27:54;5.38;;;2.39;;
48809;SDS011;40070;47.322;18.784;2023-04-03T00:29:54;4.04;;;1.59;;
48809;SDS011;40070;47.322;18.784;2023-04-03T00:31:55;4.05;;;1.89;;
48809;SDS011;40070;47.322;18.784;2023-04-03T00:33:56;3.76;;;1.99;;
48809;SDS011;40070;47.322;18.784;2023-04-03T00:35:57;5.29;;;1.89;;
48809;SDS011;40070;47.322;18.784;2023-04-03T00:37:58;3.96;;;1.79;;
48809;SDS011;40070;47.322;18.784;2023-04-03T00:39:59;4.05;;;1.79;;
48809;SDS011;40070;47.322;18.784;2023-04-03T00:42:00;5.01;;;2.09;;
48809;SDS011;40070;47.322;18.784;2023-04-03T00:44:17;5.30;;;2.09;;
48809;SDS011;40070;47.322;18.784;2023-04-03T00:46:06;4.16;;;1.89;;
48809;SDS011;40070;47.322;18.784;2023-04-03T00:48:10;5.41;;;1.89;;
48809;SDS011;40070;47.322;18.784;2023-04-03T00:50:10;6.95;;;2.09;;
48809;SDS011;40070;47.322;18.784;2023-04-03T00:52:14;3.96;;;2.09;;
48809;SDS011;40070;47.322;18.784;2023-04-03T00:54:18;4.92;;;2.09;;
48809;SDS011;40070;47.322;18.784;2023-04-03T00:56:21;4.06;;;1.69;;
48809;SDS011;40070;47.322;18.784;2023-04-03T00:58:24;3.38;;;1.49;;
48809;SDS011;40070;47.322;18.784;2023-04-03T01:00:27;5.40;;;1.69;;
48809;SDS011;40070;47.322;18.784;2023-04-03T01:02:28;5.69;;;2.09;;
48809;SDS011;40070;47.322;18.784;2023-04-03T01:04:37;4.73;;;1.89;;
48809;SDS011;40070;47.322;18.784;2023-04-03T01:06:35;3.28;;;1.39;;
48809;SDS011;40070;47.322;18.784;2023-04-03T01:08:32;3.28;;;1.49;;
48809;SDS011;40070;47.322;18.784;2023-04-03T01:10:42;3.57;;;1.69;;
48809;SDS011;40070;47.322;18.784;2023-04-03T01:12:51;5.01;;;1.99;;
48809;SDS011;40070;47.322;18.784;2023-04-03T01:14:52;3.76;;;1.59;;
48809;SDS011;40070;47.322;18.784;2023-04-03T01:16:53;4.04;;;1.79;;
48809;SDS011;40070;47.322;18.784;2023-04-03T01:18:57;5.39;;;1.89;;
48809;SDS011;40070;47.322;18.784;2023-04-03T01:23:57;4.71;;;1.99;;
48809;SDS011;40070;47.322;18.784;2023-04-03T01:25:43;4.05;;;1.79;;
48809;SDS011;40070;47.322;18.784;2023-04-03T01:27:43;3.37;;;1.59;;
48809;SDS011;40070;47.322;18.784;2023-04-03T01:29:44;4.15;;;1.79;;
48809;SDS011;40070;47.322;18.784;2023-04-03T01:31:57;2.99;;;1.29;;
48809;SDS011;40070;47.322;18.784;2023-04-03T01:33:57;2.89;;;1.39;;
48809;SDS011;40070;47.322;18.784;2023-04-03T01:35:58;4.73;;;1.99;;
48809;SDS011;40070;47.322;18.784;2023-04-03T01:37:59;2.90;;;1.29;;
48809;SDS011;40070;47.322;18.784;2023-04-03T01:40:00;4.15;;;1.59;;
48809;SDS011;40070;47.322;18.784;2023-04-03T01:42:01;3.58;;;1.59;;
48809;SDS011;40070;47.322;18.784;2023-04-03T01:44:02;3.38;;;1.39;;
48809;SDS011;40070;47.322;18.784;2023-04-03T01:46:03;3.77;;;1.49;;
48809;SDS011;40070;47.322;18.784;2023-04-03T01:48:04;3.58;;;1.69;;
48809;SDS011;40070;47.322;18.784;2023-04-03T01:50:05;3.67;;;1.49;;
48809;SDS011;40070;47.322;18.784;2023-04-03T01:52:06;3.96;;;1.69;;
48809;SDS011;40070;47.322;18.784;2023-04-03T01:54:07;3.76;;;1.39;;
48809;SDS011;40070;47.322;18.784;2023-04-03T01:56:08;4.44;;;1.59;;
48809;SDS011;40070;47.322;18.784;2023-04-03T01:58:09;3.19;;;1.29;;
48809;SDS011;40070;47.322;18.784;2023-04-03T02:00:10;4.15;;;1.89;;
48809;SDS011;40070;47.322;18.784;2023-04-03T02:02:11;3.28;;;1.49;;
48809;SDS011;40070;47.322;18.784;2023-04-03T02:04:12;5.01;;;1.79;;
48809;SDS011;40070;47.322;18.784;2023-04-03T02:06:12;4.82;;;1.39;;
48809;SDS011;40070;47.322;18.784;2023-04-03T02:08:13;3.76;;;1.39;;
48809;SDS011;40070;47.322;18.784;2023-04-03T02:10:14;2.89;;;1.39;;
48809;SDS011;40070;47.322;18.784;2023-04-03T02:12:15;3.86;;;1.59;;
48809;SDS011;40070;47.322;18.784;2023-04-03T02:14:16;2.89;;;1.29;;
48809;SDS011;40070;47.322;18.784;2023-04-03T02:16:17;3.66;;;1.59;;
48809;SDS011;40070;47.322;18.784;2023-04-03T02:18:18;4.05;;;1.69;;
48809;SDS011;40070;47.322;18.784;2023-04-03T02:20:19;3.09;;;1.69;;
48809;SDS011;40070;47.322;18.784;2023-04-03T02:22:20;5.88;;;1.69;;
48809;SDS011;40070;47.322;18.784;2023-04-03T02:24:21;4.44;;;1.89;;
48809;SDS011;40070;47.322;18.784;2023-04-03T02:26:22;2.89;;;1.29;;
48809;SDS011;40070;47.322;18.784;2023-04-03T02:28:23;5.49;;;2.39;;
48809;SDS011;40070;47.322;18.784;2023-04-03T02:30:23;3.56;;;1.59;;
48809;SDS011;40070;47.322;18.784;2023-04-03T02:32:24;5.11;;;1.89;;
48809;SDS011;40070;47.322;18.784;2023-04-03T02:34:26;3.85;;;1.69;;
48809;SDS011;40070;47.322;18.784;2023-04-03T02:36:27;4.53;;;1.89;;
48809;SDS011;40070;47.322;18.784;2023-04-03T02:38:28;4.53;;;1.89;;
48809;SDS011;40070;47.322;18.784;2023-04-03T02:40:29;3.37;;;1.39;;
48809;SDS011;40070;47.322;18.784;2023-04-03T02:42:30;4.92;;;1.99;;
48809;SDS011;40070;47.322;18.784;2023-04-03T02:44:31;3.85;;;1.79;;
48809;SDS011;40070;47.322;18.784;2023-04-03T02:46:32;4.14;;;1.59;;
48809;SDS011;40070;47.322;18.784;2023-04-03T02:48:33;4.24;;;1.79;;
48809;SDS011;40070;47.322;18.784;2023-04-03T02:50:34;3.56;;;1.59;;
48809;SDS011;40070;47.322;18.784;2023-04-03T02:52:35;5.00;;;1.79;;
48809;SDS011;40070;47.322;18.784;2023-04-03T02:54:36;4.81;;;1.89;;
48809;SDS011;40070;47.322;18.784;2023-04-03T02:56:37;4.91;;;1.89;;
48809;SDS011;40070;47.322;18.784;2023-04-03T02:58:38;3.85;;;1.69;;
48809;SDS011;40070;47.322;18.784;2023-04-03T03:00:42;5.58;;;1.89;;
48809;SDS011;40070;47.322;18.784;2023-04-03T03:02:40;3.75;;;1.59;;
48809;SDS011;40070;47.322;18.784;2023-04-03T03:04:41;5.87;;;1.69;;
48809;SDS011;40070;47.322;18.784;2023-04-03T03:06:44;4.43;;;1.69;;
48809;SDS011;40070;47.322;18.784;2023-04-03T03:08:45;7.02;;;1.69;;
48809;SDS011;40070;47.322;18.784;2023-04-03T03:10:45;3.75;;;1.79;;
48809;SDS011;40070;47.322;18.784;2023-04-03T03:12:48;3.75;;;1.49;;
48809;SDS011;40070;47.322;18.784;2023-04-03T03:14:47;5.19;;;1.89;;
48809;SDS011;40070;47.322;18.784;2023-04-03T03:16:48;3.94;;;1.79;;
48809;SDS011;40070;47.322;18.784;2023-04-03T03:18:49;4.04;;;1.99;;
48809;SDS011;40070;47.322;18.784;2023-04-03T03:20:51;4.14;;;1.59;;
48809;SDS011;40070;47.322;18.784;2023-04-03T03:22:51;4.52;;;1.99;;
48809;SDS011;40070;47.322;18.784;2023-04-03T03:24:52;3.46;;;1.69;;
48809;SDS011;40070;47.322;18.784;2023-04-03T03:26:53;5.00;;;2.19;;
48809;SDS011;40070;47.322;18.784;2023-04-03T03:28:54;4.23;;;1.89;;
48809;SDS011;40070;47.322;18.784;2023-04-03T03:30:56;3.74;;;1.99;;
48809;SDS011;40070;47.322;18.784;2023-04-03T03:32:56;4.12;;;1.89;;
48809;SDS011;40070;47.322;18.784;2023-04-03T03:34:56;6.11;;;2.28;;
48809;SDS011;40070;47.322;18.784;2023-04-03T03:36:57;5.72;;;2.48;;
48809;SDS011;40070;47.322;18.784;2023-04-03T03:38:58;4.39;;;1.89;;
48809;SDS011;40070;47.322;18.784;2023-04-03T03:40:59;5.05;;;2.08;;
48809;SDS011;40070;47.322;18.784;2023-04-03T03:43:00;5.15;;;1.98;;
48809;SDS011;40070;47.322;18.784;2023-04-03T03:45:02;4.57;;;1.69;;
48809;SDS011;40070;47.322;18.784;2023-04-03T03:47:02;4.96;;;2.08;;
48809;SDS011;40070;47.322;18.784;2023-04-03T03:49:03;4.10;;;1.69;;
48809;SDS011;40070;47.322;18.784;2023-04-03T03:51:04;7.04;;;2.58;;
48809;SDS011;40070;47.322;18.784;2023-04-03T03:53:05;4.94;;;2.08;;
48809;SDS011;40070;47.322;18.784;2023-04-03T03:55:07;3.99;;;1.98;;
48809;SDS011;40070;47.322;18.784;2023-04-03T03:57:07;3.80;;;1.49;;
48809;SDS011;40070;47.322;18.784;2023-04-03T03:59:10;4.94;;;1.88;;
48809;SDS011;40070;47.322;18.784;2023-04-03T04:01:09;3.13;;;1.39;;
48809;SDS011;40070;47.322;18.784;2023-04-03T04:03:10;3.41;;;1.78;;
48809;SDS011;40070;47.322;18.784;2023-04-03T04:05:11;4.46;;;1.98;;
48809;SDS011;40070;47.322;18.784;2023-04-03T04:07:12;5.96;;;1.78;;
48809;SDS011;40070;47.322;18.784;2023-04-03T04:09:13;4.44;;;2.08;;
48809;SDS011;40070;47.322;18.784;2023-04-03T04:11:14;5.01;;;1.78;;
48809;SDS011;40070;47.322;18.784;2023-04-03T04:13:15;3.50;;;1.58;;
48809;SDS011;40070;47.322;18.784;2023-04-03T04:15:16;4.07;;;1.88;;
48809;SDS011;40070;47.322;18.784;2023-04-03T04:17:17;4.74;;;1.98;;
48809;SDS011;40070;47.322;18.784;2023-04-03T04:19:18;4.64;;;1.98;;
48809;SDS011;40070;47.322;18.784;2023-04-03T04:21:19;4.07;;;1.78;;
48809;SDS011;40070;47.322;18.784;2023-04-03T04:23:20;5.12;;;2.28;;
48809;SDS011;40070;47.322;18.784;2023-04-03T04:25:21;3.69;;;1.88;;
48809;SDS011;40070;47.322;18.784;2023-04-03T04:27:22;5.22;;;1.88;;
48809;SDS011;40070;47.322;18.784;2023-04-03T04:29:23;4.07;;;1.88;;
48809;SDS011;40070;47.322;18.784;2023-04-03T04:31:24;4.72;;;2.18;;
48809;SDS011;40070;47.322;18.784;2023-04-03T04:33:25;6.15;;;1.98;;
48809;SDS011;40070;47.322;18.784;2023-04-03T04:35:26;5.59;;;1.78;;
48809;SDS011;40070;47.322;18.784;2023-04-03T04:37:27;3.60;;;1.78;;
48809;SDS011;40070;47.322;18.784;2023-04-03T04:39:28;3.51;;;1.49;;
48809;SDS011;40070;47.322;18.784;2023-04-03T04:41:29;3.50;;;1.58;;
48809;SDS011;40070;47.322;18.784;2023-04-03T04:43:30;6.92;;;1.68;;
48809;SDS011;40070;47.322;18.784;2023-04-03T04:45:31;3.77;;;1.78;;
48809;SDS011;40070;47.322;18.784;2023-04-03T04:47:32;4.16;;;1.88;;
48809;SDS011;40070;47.322;18.784;2023-04-03T04:49:33;2.93;;;1.58;;
48809;SDS011;40070;47.322;18.784;2023-04-03T04:51:33;3.78;;;1.78;;
48809;SDS011;40070;47.322;18.784;2023-04-03T04:53:34;2.93;;;1.29;;
48809;SDS011;40070;47.322;18.784;2023-04-03T04:55:36;6.04;;;1.98;;
48809;SDS011;40070;47.322;18.784;2023-04-03T04:57:37;3.49;;;1.58;;
48809;SDS011;40070;47.322;18.784;2023-04-03T04:59:38;3.21;;;1.48;;
48809;SDS011;40070;47.322;18.784;2023-04-03T05:01:40;4.14;;;1.98;;
48809;SDS011;40070;47.322;18.784;2023-04-03T05:03:41;4.61;;;1.78;;
48809;SDS011;40070;47.322;18.784;2023-04-03T05:05:42;4.33;;;1.88;;
48809;SDS011;40070;47.322;18.784;2023-04-03T05:07:42;3.96;;;1.68;;
48809;SDS011;40070;47.322;18.784;2023-04-03T05:09:44;4.05;;;1.68;;
48809;SDS011;40070;47.322;18.784;2023-04-03T05:11:44;6.66;;;1.88;;
48809;SDS011;40070;47.322;18.784;2023-04-03T05:13:46;3.57;;;1.68;;
48809;SDS011;40070;47.322;18.784;2023-04-03T05:15:46;3.57;;;1.68;;
48809;SDS011;40070;47.322;18.784;2023-04-03T05:17:47;3.19;;;1.38;;
48809;SDS011;40070;47.322;18.784;2023-04-03T05:19:48;4.23;;;1.98;;
48809;SDS011;40070;47.322;18.784;2023-04-03T05:21:49;4.69;;;1.58;;
48809;SDS011;40070;47.322;18.784;2023-04-03T05:23:50;3.76;;;1.68;;
48809;SDS011;40070;47.322;18.784;2023-04-03T05:25:51;3.95;;;1.78;;
48809;SDS011;40070;47.322;18.784;2023-04-03T05:27:52;3.57;;;1.38;;
48809;SDS011;40070;47.322;18.784;2023-04-03T05:29:53;4.33;;;2.08;;
48809;SDS011;40070;47.322;18.784;2023-04-03T05:31:54;3.49;;;1.68;;
48809;SDS011;40070;47.322;18.784;2023-04-03T05:33:55;5.48;;;2.28;;
48809;SDS011;40070;47.322;18.784;2023-04-03T05:35:56;3.13;;;1.49;;
48809;SDS011;40070;47.322;18.784;2023-04-03T05:37:57;3.22;;;1.29;;
48809;SDS011;40070;47.322;18.784;2023-04-03T05:39:58;3.23;;;1.59;;
48809;SDS011;40070;47.322;18.784;2023-04-03T05:41:59;3.89;;;1.59;;
48809;SDS011;40070;47.322;18.784;2023-04-03T05:43:59;3.70;;;1.88;;
48809;SDS011;40070;47.322;18.784;2023-04-03T05:46:01;2.95;;;1.59;;
48809;SDS011;40070;47.322;18.784;2023-04-03T05:48:03;3.80;;;1.69;;
48809;SDS011;40070;47.322;18.784;2023-04-03T05:50:04;4.28;;;1.59;;
48809;SDS011;40070;47.322;18.784;2023-04-03T05:52:06;4.37;;;2.08;;
48809;SDS011;40070;47.322;18.784;2023-04-03T05:54:25;4.28;;;1.69;;
48809;SDS011;40070;47.322;18.784;2023-04-03T05:56:08;3.61;;;1.98;;
48809;SDS011;40070;47.322;18.784;2023-04-03T05:58:09;4.76;;;1.59;;
48809;SDS011;40070;47.322;18.784;2023-04-03T06:00:12;5.24;;;1.49;;
48809;SDS011;40070;47.322;18.784;2023-04-03T06:02:11;4.87;;;2.48;;
48809;SDS011;40070;47.322;18.784;2023-04-03T06:04:13;4.21;;;1.59;;
48809;SDS011;40070;47.322;18.784;2023-04-03T06:06:13;3.44;;;1.59;;
48809;SDS011;40070;47.322;18.784;2023-04-03T06:08:13;4.21;;;1.59;;
48809;SDS011;40070;47.322;18.784;2023-04-03T06:10:14;4.97;;;2.08;;
48809;SDS011;40070;47.322;18.784;2023-04-03T06:12:15;5.26;;;1.99;;
48809;SDS011;40070;47.322;18.784;2023-04-03T06:14:16;3.15;;;1.59;;
48809;SDS011;40070;47.322;18.784;2023-04-03T06:16:17;3.34;;;1.39;;
48809;SDS011;40070;47.322;18.784;2023-04-03T06:18:18;4.30;;;2.09;;
48809;SDS011;40070;47.322;18.784;2023-04-03T06:20:19;3.84;;;1.59;;
48809;SDS011;40070;47.322;18.784;2023-04-03T06:22:20;3.74;;;1.49;;
48809;SDS011;40070;47.322;18.784;2023-04-03T06:24:21;2.88;;;1.39;;
48809;SDS011;40070;47.322;18.784;2023-04-03T06:26:22;3.27;;;1.39;;
48809;SDS011;40070;47.322;18.784;2023-04-03T06:28:23;4.62;;;1.59;;
48809;SDS011;40070;47.322;18.784;2023-04-03T06:30:23;4.54;;;1.49;;
48809;SDS011;40070;47.322;18.784;2023-04-03T06:32:24;4.94;;;1.69;;
48809;SDS011;40070;47.322;18.784;2023-04-03T06:34:25;3.19;;;1.29;;
48809;SDS011;40070;47.322;18.784;2023-04-03T06:36:28;2.62;;;1.20;;
48809;SDS011;40070;47.322;18.784;2023-04-03T06:38:29;4.37;;;1.39;;
48809;SDS011;40070;47.322;18.784;2023-04-03T06:40:30;2.62;;;1.20;;
48809;SDS011;40070;47.322;18.784;2023-04-03T06:42:31;2.92;;;1.20;;
48809;SDS011;40070;47.322;18.784;2023-04-03T06:44:32;2.72;;;1.20;;
48809;SDS011;40070;47.322;18.784;2023-04-03T06:46:33;1.95;;;0.90;;
48809;SDS011;40070;47.322;18.784;2023-04-03T06:48:34;2.44;;;1.00;;
48809;SDS011;40070;47.322;18.784;2023-04-03T06:50:35;3.89;;;1.00;;
48809;SDS011;40070;47.322;18.784;2023-04-03T06:52:38;4.29;;;1.30;;
48809;SDS011;40070;47.322;18.784;2023-04-03T06:54:37;3.80;;;1.40;;
48809;SDS011;40070;47.322;18.784;2023-04-03T06:56:38;4.10;;;1.30;;
48809;SDS011;40070;47.322;18.784;2023-04-03T06:58:39;2.54;;;0.90;;
48809;SDS011;40070;47.322;18.784;2023-04-03T07:00:41;3.42;;;1.20;;
48809;SDS011;40070;47.322;18.784;2023-04-03T07:02:42;2.64;;;1.10;;
48809;SDS011;40070;47.322;18.784;2023-04-03T07:04:43;2.05;;;1.00;;
48809;SDS011;40070;47.322;18.784;2023-04-03T07:06:45;3.22;;;1.30;;
48809;SDS011;40070;47.322;18.784;2023-04-03T07:08:46;2.25;;;0.90;;
48809;SDS011;40070;47.322;18.784;2023-04-03T07:10:50;2.55;;;1.30;;
48809;SDS011;40070;47.322;18.784;2023-04-03T07:12:48;3.23;;;1.30;;
48809;SDS011;40070;47.322;18.784;2023-04-03T07:14:52;2.74;;;1.40;;
48809;SDS011;40070;47.322;18.784;2023-04-03T07:16:52;2.65;;;1.10;;
48809;SDS011;40070;47.322;18.784;2023-04-03T07:18:53;4.42;;;1.10;;
48809;SDS011;40070;47.322;18.784;2023-04-03T07:20:54;2.65;;;1.00;;
48809;SDS011;40070;47.322;18.784;2023-04-03T07:22:56;2.25;;;0.90;;
48809;SDS011;40070;47.322;18.784;2023-04-03T07:24:59;2.55;;;1.10;;
48809;SDS011;40070;47.322;18.784;2023-04-03T07:26:58;2.94;;;0.90;;
48809;SDS011;40070;47.322;18.784;2023-04-03T07:28:59;2.84;;;1.20;;
48809;SDS011;40070;47.322;18.784;2023-04-03T07:31:01;2.45;;;1.10;;
48809;SDS011;40070;47.322;18.784;2023-04-03T07:33:01;2.65;;;1.00;;
48809;SDS011;40070;47.322;18.784;2023-04-03T07:35:02;2.95;;;1.20;;
48809;SDS011;40070;47.322;18.784;2023-04-03T07:37:03;1.38;;;0.70;;
48809;SDS011;40070;47.322;18.784;2023-04-03T07:39:04;2.07;;;0.70;;
48809;SDS011;40070;47.322;18.784;2023-04-03T07:41:06;4.23;;;1.10;;
48809;SDS011;40070;47.322;18.784;2023-04-03T07:43:07;2.56;;;1.00;;
48809;SDS011;40070;47.322;18.784;2023-04-03T07:45:08;1.58;;;0.80;;
48809;SDS011;40070;47.322;18.784;2023-04-03T07:47:08;2.85;;;1.10;;
48809;SDS011;40070;47.322;18.784;2023-04-03T07:49:09;3.44;;;1.10;;
48809;SDS011;40070;47.322;18.784;2023-04-03T07:51:11;1.67;;;0.80;;
48809;SDS011;40070;47.322;18.784;2023-04-03T07:53:12;1.97;;;0.80;;
48809;SDS011;40070;47.322;18.784;2023-04-03T07:55:14;2.95;;;0.80;;
48809;SDS011;40070;47.322;18.784;2023-04-03T07:57:15;2.36;;;1.00;;
48809;SDS011;40070;47.322;18.784;2023-04-03T07:59:16;1.48;;;0.70;;
48809;SDS011;40070;47.322;18.784;2023-04-03T08:01:17;1.48;;;0.70;;
48809;SDS011;40070;47.322;18.784;2023-04-03T08:03:17;1.77;;;0.80;;
48809;SDS011;40070;47.322;18.784;2023-04-03T08:05:18;2.47;;;0.90;;
48809;SDS011;40070;47.322;18.784;2023-04-03T08:07:19;2.17;;;0.80;;
48809;SDS011;40070;47.322;18.784;2023-04-03T08:09:20;1.88;;;0.90;;
48809;SDS011;40070;47.322;18.784;2023-04-03T08:11:22;3.35;;;0.90;;
48809;SDS011;40070;47.322;18.784;2023-04-03T08:13:23;2.17;;;1.10;;
48809;SDS011;40070;47.322;18.784;2023-04-03T08:15:24;1.68;;;0.70;;
48809;SDS011;40070;47.322;18.784;2023-04-03T08:17:25;2.07;;;0.90;;
48809;SDS011;40070;47.322;18.784;2023-04-03T08:19:26;2.37;;;0.70;;
48809;SDS011;40070;47.322;18.784;2023-04-03T08:21:27;2.07;;;0.70;;
48809;SDS011;40070;47.322;18.784;2023-04-03T08:23:28;1.48;;;0.70;;
48809;SDS011;40070;47.322;18.784;2023-04-03T08:25:29;2.37;;;0.70;;
48809;SDS011;40070;47.322;18.784;2023-04-03T08:27:30;1.98;;;0.70;;
48809;SDS011;40070;47.322;18.784;2023-04-03T08:29:30;2.57;;;0.80;;
48809;SDS011;40070;47.322;18.784;2023-04-03T08:31:39;1.38;;;0.60;;
48809;SDS011;40070;47.322;18.784;2023-04-03T08:33:40;2.67;;;0.90;;
48809;SDS011;40070;47.322;18.784;2023-04-03T08:35:41;1.68;;;0.70;;
48809;SDS011;40070;47.322;18.784;2023-04-03T08:37:42;2.08;;;0.90;;
48809;SDS011;40070;47.322;18.784;2023-04-03T08:39:44;1.88;;;0.80;;
48809;SDS011;40070;47.322;18.784;2023-04-03T08:41:46;1.88;;;0.70;;
48809;SDS011;40070;47.322;18.784;2023-04-03T08:46:24;1.98;;;0.80;;
48809;SDS011;40070;47.322;18.784;2023-04-03T08:48:34;2.37;;;0.90;;
48809;SDS011;40070;47.322;18.784;2023-04-03T08:50:36;1.68;;;0.70;;
48809;SDS011;40070;47.322;18.784;2023-04-03T08:52:50;1.78;;;0.70;;
48809;SDS011;40070;47.322;18.784;2023-04-03T08:54:56;1.58;;;0.70;;
48809;SDS011;40070;47.322;18.784;2023-04-03T08:56:50;2.67;;;0.80;;
48809;SDS011;40070;47.322;18.784;2023-04-03T08:58:55;1.88;;;0.80;;
48809;SDS011;40070;47.322;18.784;2023-04-03T09:01:02;1.98;;;0.70;;
48809;SDS011;40070;47.322;18.784;2023-04-03T09:03:19;1.68;;;0.70;;
48809;SDS011;40070;47.322;18.784;2023-04-03T09:05:19;2.67;;;0.90;;
48809;SDS011;40070;47.322;18.784;2023-04-03T09:07:29;1.68;;;0.60;;
48809;SDS011;40070;47.322;18.784;2023-04-03T09:09:39;3.27;;;0.60;;
48809;SDS011;40070;47.322;18.784;2023-04-03T09:12:00;1.19;;;0.60;;
48809;SDS011;40070;47.322;18.784;2023-04-03T09:15:57;2.38;;;0.80;;
48809;SDS011;40070;47.322;18.784;2023-04-03T09:22:51;2.08;;;0.60;;
48809;SDS011;40070;47.322;18.784;2023-04-03T09:25:37;2.58;;;0.70;;
48809;SDS011;40070;47.322;18.784;2023-04-03T09:27:04;1.69;;;0.60;;
48809;SDS011;40070;47.322;18.784;2023-04-03T09:29:07;1.89;;;0.70;;
48809;SDS011;40070;47.322;18.784;2023-04-03T09:31:21;2.09;;;0.80;;
48809;SDS011;40070;47.322;18.784;2023-04-03T09:33:08;1.99;;;0.80;;
48809;SDS011;40070;47.322;18.784;2023-04-03T09:35:23;1.29;;;0.60;;
48809;SDS011;40070;47.322;18.784;2023-04-03T09:37:45;2.58;;;0.80;;
48809;SDS011;40070;47.322;18.784;2023-04-03T09:39:30;2.39;;;0.80;;
48809;SDS011;40070;47.322;18.784;2023-04-03T09:43:53;1.59;;;0.70;;
48809;SDS011;40070;47.322;18.784;2023-04-03T09:45:54;3.38;;;0.70;;
48809;SDS011;40070;47.322;18.784;2023-04-03T09:48:09;1.29;;;0.50;;
48809;SDS011;40070;47.322;18.784;2023-04-03T09:52:16;2.09;;;0.90;;
48809;SDS011;40070;47.322;18.784;2023-04-03T09:54:32;1.59;;;0.70;;
48809;SDS011;40070;47.322;18.784;2023-04-03T09:56:22;1.29;;;0.50;;
48809;SDS011;40070;47.322;18.784;2023-04-03T09:58:27;0.99;;;0.50;;
48809;SDS011;40070;47.322;18.784;2023-04-03T10:00:31;2.39;;;0.90;;
48809;SDS011;40070;47.322;18.784;2023-04-03T10:02:46;2.19;;;0.60;;
48809;SDS011;40070;47.322;18.784;2023-04-03T10:04:48;1.29;;;0.50;;
48809;SDS011;40070;47.322;18.784;2023-04-03T10:06:55;1.00;;;0.50;;
48809;SDS011;40070;47.322;18.784;2023-04-03T10:09:00;3.38;;;0.50;;
48809;SDS011;40070;47.322;18.784;2023-04-03T10:11:08;1.69;;;0.60;;
48809;SDS011;40070;47.322;18.784;2023-04-03T10:13:05;1.49;;;0.60;;
48809;SDS011;40070;47.322;18.784;2023-04-03T10:15:00;0.90;;;0.50;;
48809;SDS011;40070;47.322;18.784;2023-04-03T10:17:18;1.20;;;0.60;;
48809;SDS011;40070;47.322;18.784;2023-04-03T10:23:40;1.20;;;0.40;;
48809;SDS011;40070;47.322;18.784;2023-04-03T10:32:42;1.50;;;0.50;;
48809;SDS011;40070;47.322;18.784;2023-04-03T10:34:49;2.09;;;0.70;;
48809;SDS011;40070;47.322;18.784;2023-04-03T10:39:36;1.20;;;0.50;;
48809;SDS011;40070;47.322;18.784;2023-04-03T10:50:58;1.59;;;0.60;;
48809;SDS011;40070;47.322;18.784;2023-04-03T10:52:57;1.59;;;0.60;;
48809;SDS011;40070;47.322;18.784;2023-04-03T10:57:08;1.30;;;0.60;;
48809;SDS011;40070;47.322;18.784;2023-04-03T11:01:14;1.30;;;0.50;;
48809;SDS011;40070;47.322;18.784;2023-04-03T11:03:32;1.99;;;0.80;;
48809;SDS011;40070;47.322;18.784;2023-04-03T11:05:45;1.50;;;0.60;;
48809;SDS011;40070;47.322;18.784;2023-04-03T11:07:39;1.50;;;0.60;;
48809;SDS011;40070;47.322;18.784;2023-04-03T11:09:54;1.69;;;0.70;;
48809;SDS011;40070;47.322;18.784;2023-04-03T11:11:57;1.30;;;0.60;;
48809;SDS011;40070;47.322;18.784;2023-04-03T11:14:14;1.20;;;0.50;;
48809;SDS011;40070;47.322;18.784;2023-04-03T11:16:11;2.49;;;0.60;;
48809;SDS011;40070;47.322;18.784;2023-04-03T11:18:17;1.29;;;0.70;;
48809;SDS011;40070;47.322;18.784;2023-04-03T11:20:30;1.00;;;0.50;;
48809;SDS011;40070;47.322;18.784;2023-04-03T11:22:31;1.89;;;0.60;;
48809;SDS011;40070;47.322;18.784;2023-04-03T11:24:29;1.50;;;0.70;;
48809;SDS011;40070;47.322;18.784;2023-04-03T11:26:38;1.00;;;0.50;;
48809;SDS011;40070;47.322;18.784;2023-04-03T11:28:43;2.29;;;0.60;;
48809;SDS011;40070;47.322;18.784;2023-04-03T11:31:08;0.90;;;0.50;;
48809;SDS011;40070;47.322;18.784;2023-04-03T11:35:15;1.69;;;0.80;;
48809;SDS011;40070;47.322;18.784;2023-04-03T11:37:31;0.70;;;0.40;;
48809;SDS011;40070;47.322;18.784;2023-04-03T11:39:22;2.89;;;0.80;;
48809;SDS011;40070;47.322;18.784;2023-04-03T11:41:25;2.29;;;0.70;;
48809;SDS011;40070;47.322;18.784;2023-04-03T11:43:57;1.30;;;0.60;;
48809;SDS011;40070;47.322;18.784;2023-04-03T11:46:06;2.39;;;0.80;;
48809;SDS011;40070;47.322;18.784;2023-04-03T11:54:44;2.29;;;0.80;;
48809;SDS011;40070;47.322;18.784;2023-04-03T11:56:56;1.60;;;0.70;;
48809;SDS011;40070;47.322;18.784;2023-04-03T11:59:15;1.99;;;0.70;;
48809;SDS011;40070;47.322;18.784;2023-04-03T12:05:57;1.79;;;0.80;;
48809;SDS011;40070;47.322;18.784;2023-04-03T12:10:14;2.19;;;0.80;;
48809;SDS011;40070;47.322;18.784;2023-04-03T12:12:26;1.10;;;0.60;;
48809;SDS011;40070;47.322;18.784;2023-04-03T12:14:24;1.30;;;0.60;;
48809;SDS011;40070;47.322;18.784;2023-04-03T12:20:56;1.79;;;0.70;;
48809;SDS011;40070;47.322;18.784;2023-04-03T12:22:40;1.50;;;0.60;;
48809;SDS011;40070;47.322;18.784;2023-04-03T12:24:53;2.19;;;0.80;;
48809;SDS011;40070;47.322;18.784;2023-04-03T12:27:09;1.30;;;0.60;;
48809;SDS011;40070;47.322;18.784;2023-04-03T12:28:58;2.39;;;0.90;;
48809;SDS011;40070;47.322;18.784;2023-04-03T12:31:01;1.50;;;0.60;;
48809;SDS011;40070;47.322;18.784;2023-04-03T12:33:28;2.89;;;0.80;;
48809;SDS011;40070;47.322;18.784;2023-04-03T12:35:31;1.20;;;0.60;;
48809;SDS011;40070;47.322;18.784;2023-04-03T12:42:09;1.99;;;0.80;;
48809;SDS011;40070;47.322;18.784;2023-04-03T12:44:19;3.19;;;1.20;;
48809;SDS011;40070;47.322;18.784;2023-04-03T12:46:17;1.00;;;0.50;;
48809;SDS011;40070;47.322;18.784;2023-04-03T12:48:21;1.80;;;0.60;;
48809;SDS011;40070;47.322;18.784;2023-04-03T12:50:24;1.00;;;0.60;;
48809;SDS011;40070;47.322;18.784;2023-04-03T12:54:27;2.19;;;0.80;;
48809;SDS011;40070;47.322;18.784;2023-04-03T12:56:38;1.50;;;0.70;;
48809;SDS011;40070;47.322;18.784;2023-04-03T12:59:12;2.99;;;1.10;;
48809;SDS011;40070;47.322;18.784;2023-04-03T13:01:04;3.09;;;1.10;;
48809;SDS011;40070;47.322;18.784;2023-04-03T13:03:03;3.09;;;1.00;;
48809;SDS011;40070;47.322;18.784;2023-04-03T13:05:08;3.39;;;1.40;;
48809;SDS011;40070;47.322;18.784;2023-04-03T13:07:18;3.39;;;1.00;;
48809;SDS011;40070;47.322;18.784;2023-04-03T13:09:25;2.59;;;0.70;;
48809;SDS011;40070;47.322;18.784;2023-04-03T13:11:35;1.30;;;0.60;;
48809;SDS011;40070;47.322;18.784;2023-04-03T13:13:39;2.39;;;0.80;;
48809;SDS011;40070;47.322;18.784;2023-04-03T13:15:47;1.80;;;0.70;;
48809;SDS011;40070;47.322;18.784;2023-04-03T13:17:48;2.89;;;1.20;;